sensor_id;sensor_type;location;lat;lon;timestamp;P1;P2;P0
56175;PMS5003;63065;51.082;17.016;2022-12-18T00:01:06;62;51;
56175;PMS5003;63065;51.082;17.016;2022-12-18T00:03:30;95;73;
56175;PMS5003;63065;51.082;17.016;2022-12-18T00:05:56;62;54;
56175;PMS5003;63065;51.082;17.016;2022-12-18T00:08:21;60;52;
56175;PMS5003;63065;51.082;17.016;2022-12-18T00:10:46;63;61;
56175;PMS5003;63065;51.082;17.016;2022-12-18T00:13:12;56;52;
56175;PMS5003;63065;51.082;17.016;2022-12-18T00:15:37;57;51;
56175;PMS5003;63065;51.082;17.016;2022-12-18T00:18:02;57;48;
56175;PMS5003;63065;51.082;17.016;2022-12-18T00:20:28;55;49;
56175;PMS5003;63065;51.082;17.016;2022-12-18T00:22:54;57;52;
56175;PMS5003;63065;51.082;17.016;2022-12-18T00:25:19;57;52;
56175;PMS5003;63065;51.082;17.016;2022-12-18T00:27:44;51;48;
56175;PMS5003;63065;51.082;17.016;2022-12-18T00:30:10;56;48;
56175;PMS5003;63065;51.082;17.016;2022-12-18T00:32:35;54;52;
56175;PMS5003;63065;51.082;17.016;2022-12-18T00:35:01;61;49;
56175;PMS5003;63065;51.082;17.016;2022-12-18T00:37:26;56;48;
56175;PMS5003;63065;51.082;17.016;2022-12-18T00:39:52;56;56;
56175;PMS5003;63065;51.082;17.016;2022-12-18T00:42:18;49;45;
56175;PMS5003;63065;51.082;17.016;2022-12-18T00:44:43;60;50;
56175;PMS5003;63065;51.082;17.016;2022-12-18T00:47:08;57;49;
56175;PMS5003;63065;51.082;17.016;2022-12-18T00:49:34;52;51;
56175;PMS5003;63065;51.082;17.016;2022-12-18T00:51:59;49;45;
56175;PMS5003;63065;51.082;17.016;2022-12-18T00:54:24;45;42;
56175;PMS5003;63065;51.082;17.016;2022-12-18T00:56:50;62;50;
56175;PMS5003;63065;51.082;17.016;2022-12-18T00:59:16;54;49;
56175;PMS5003;63065;51.082;17.016;2022-12-18T01:01:41;63;51;
56175;PMS5003;63065;51.082;17.016;2022-12-18T01:04:06;51;50;
56175;PMS5003;63065;51.082;17.016;2022-12-18T01:06:32;52;45;
56175;PMS5003;63065;51.082;17.016;2022-12-18T01:08:57;49;43;
56175;PMS5003;63065;51.082;17.016;2022-12-18T01:11:22;50;40;
56175;PMS5003;63065;51.082;17.016;2022-12-18T01:13:48;50;46;
56175;PMS5003;63065;51.082;17.016;2022-12-18T01:16:13;58;49;
56175;PMS5003;63065;51.082;17.016;2022-12-18T01:18:38;50;46;
56175;PMS5003;63065;51.082;17.016;2022-12-18T01:21:05;55;46;
56175;PMS5003;63065;51.082;17.016;2022-12-18T01:23:29;46;43;
56175;PMS5003;63065;51.082;17.016;2022-12-18T01:25:54;54;42;
56175;PMS5003;63065;51.082;17.016;2022-12-18T01:28:20;52;46;
56175;PMS5003;63065;51.082;17.016;2022-12-18T01:30:45;40;34;
56175;PMS5003;63065;51.082;17.016;2022-12-18T01:33:10;49;43;
56175;PMS5003;63065;51.082;17.016;2022-12-18T01:35:39;55;48;
56175;PMS5003;63065;51.082;17.016;2022-12-18T01:38:01;49;43;
56175;PMS5003;63065;51.082;17.016;2022-12-18T01:40:26;51;48;
56175;PMS5003;63065;51.082;17.016;2022-12-18T01:42:52;52;47;
56175;PMS5003;63065;51.082;17.016;2022-12-18T01:47:43;49;43;
56175;PMS5003;63065;51.082;17.016;2022-12-18T01:50:09;52;48;
56175;PMS5003;63065;51.082;17.016;2022-12-18T01:52:34;63;52;
56175;PMS5003;63065;51.082;17.016;2022-12-18T01:54:59;52;42;
56175;PMS5003;63065;51.082;17.016;2022-12-18T01:57:25;60;48;
56175;PMS5003;63065;51.082;17.016;2022-12-18T01:59:51;48;46;
56175;PMS5003;63065;51.082;17.016;2022-12-18T02:02:16;49;47;
56175;PMS5003;63065;51.082;17.016;2022-12-18T02:04:41;42;34;
56175;PMS5003;63065;51.082;17.016;2022-12-18T02:07:10;52;46;
56175;PMS5003;63065;51.082;17.016;2022-12-18T02:09:33;44;41;
56175;PMS5003;63065;51.082;17.016;2022-12-18T02:11:59;58;47;
56175;PMS5003;63065;51.082;17.016;2022-12-18T02:14:23;52;41;
56175;PMS5003;63065;51.082;17.016;2022-12-18T02:16:50;49;49;
56175;PMS5003;63065;51.082;17.016;2022-12-18T02:19:19;50;42;
56175;PMS5003;63065;51.082;17.016;2022-12-18T02:21:43;53;49;
56175;PMS5003;63065;51.082;17.016;2022-12-18T02:24:12;45;42;
56175;PMS5003;63065;51.082;17.016;2022-12-18T02:26:33;49;45;
56175;PMS5003;63065;51.082;17.016;2022-12-18T02:28:58;46;40;
56175;PMS5003;63065;51.082;17.016;2022-12-18T02:31:24;48;41;
56175;PMS5003;63065;51.082;17.016;2022-12-18T02:33:48;55;43;
56175;PMS5003;63065;51.082;17.016;2022-12-18T02:36:13;63;50;
56175;PMS5003;63065;51.082;17.016;2022-12-18T02:38:39;47;46;
56175;PMS5003;63065;51.082;17.016;2022-12-18T02:41:04;48;46;
56175;PMS5003;63065;51.082;17.016;2022-12-18T02:43:29;48;41;
56175;PMS5003;63065;51.082;17.016;2022-12-18T02:45:55;51;41;
56175;PMS5003;63065;51.082;17.016;2022-12-18T02:48:21;42;41;
56175;PMS5003;63065;51.082;17.016;2022-12-18T02:50:47;41;37;
56175;PMS5003;63065;51.082;17.016;2022-12-18T02:53:13;52;47;
56175;PMS5003;63065;51.082;17.016;2022-12-18T02:55:39;54;49;
56175;PMS5003;63065;51.082;17.016;2022-12-18T02:58:03;46;40;
56175;PMS5003;63065;51.082;17.016;2022-12-18T03:00:28;51;44;
56175;PMS5003;63065;51.082;17.016;2022-12-18T03:02:53;51;42;
56175;PMS5003;63065;51.082;17.016;2022-12-18T03:05:19;43;40;
56175;PMS5003;63065;51.082;17.016;2022-12-18T03:07:45;51;44;
56175;PMS5003;63065;51.082;17.016;2022-12-18T03:10:11;48;41;
56175;PMS5003;63065;51.082;17.016;2022-12-18T03:12:35;53;46;
56175;PMS5003;63065;51.082;17.016;2022-12-18T03:15:01;48;40;
56175;PMS5003;63065;51.082;17.016;2022-12-18T03:17:26;45;39;
56175;PMS5003;63065;51.082;17.016;2022-12-18T03:19:52;48;43;
56175;PMS5003;63065;51.082;17.016;2022-12-18T03:22:17;47;43;
56175;PMS5003;63065;51.082;17.016;2022-12-18T03:24:42;46;42;
56175;PMS5003;63065;51.082;17.016;2022-12-18T03:27:10;60;48;
56175;PMS5003;63065;51.082;17.016;2022-12-18T03:29:35;54;42;
56175;PMS5003;63065;51.082;17.016;2022-12-18T03:32:01;51;40;
56175;PMS5003;63065;51.082;17.016;2022-12-18T03:34:26;46;42;
56175;PMS5003;63065;51.082;17.016;2022-12-18T03:36:49;44;38;
56175;PMS5003;63065;51.082;17.016;2022-12-18T03:39:15;45;42;
56175;PMS5003;63065;51.082;17.016;2022-12-18T03:41:41;56;47;
56175;PMS5003;63065;51.082;17.016;2022-12-18T03:44:08;59;48;
56175;PMS5003;63065;51.082;17.016;2022-12-18T03:46:33;45;42;
56175;PMS5003;63065;51.082;17.016;2022-12-18T03:48:59;59;48;
56175;PMS5003;63065;51.082;17.016;2022-12-18T03:51:24;53;46;
56175;PMS5003;63065;51.082;17.016;2022-12-18T03:53:49;58;47;
56175;PMS5003;63065;51.082;17.016;2022-12-18T03:56:13;47;38;
56175;PMS5003;63065;51.082;17.016;2022-12-18T03:58:38;45;41;
56175;PMS5003;63065;51.082;17.016;2022-12-18T04:01:04;49;36;
56175;PMS5003;63065;51.082;17.016;2022-12-18T04:03:29;45;40;
56175;PMS5003;63065;51.082;17.016;2022-12-18T04:05:54;56;42;
56175;PMS5003;63065;51.082;17.016;2022-12-18T04:08:19;48;45;
56175;PMS5003;63065;51.082;17.016;2022-12-18T04:10:44;46;42;
56175;PMS5003;63065;51.082;17.016;2022-12-18T04:13:09;52;46;
56175;PMS5003;63065;51.082;17.016;2022-12-18T04:15:35;54;45;
56175;PMS5003;63065;51.082;17.016;2022-12-18T04:18:00;51;50;
56175;PMS5003;63065;51.082;17.016;2022-12-18T04:20:26;43;40;
56175;PMS5003;63065;51.082;17.016;2022-12-18T04:22:51;61;48;
56175;PMS5003;63065;51.082;17.016;2022-12-18T04:25:16;61;50;
56175;PMS5003;63065;51.082;17.016;2022-12-18T04:27:42;54;52;
56175;PMS5003;63065;51.082;17.016;2022-12-18T04:30:08;64;49;
56175;PMS5003;63065;51.082;17.016;2022-12-18T04:32:33;53;51;
56175;PMS5003;63065;51.082;17.016;2022-12-18T04:34:59;51;46;
56175;PMS5003;63065;51.082;17.016;2022-12-18T04:37:24;53;47;
56175;PMS5003;63065;51.082;17.016;2022-12-18T04:39:48;61;50;
56175;PMS5003;63065;51.082;17.016;2022-12-18T04:42:14;51;42;
56175;PMS5003;63065;51.082;17.016;2022-12-18T04:44:40;55;46;
56175;PMS5003;63065;51.082;17.016;2022-12-18T04:47:04;59;48;
56175;PMS5003;63065;51.082;17.016;2022-12-18T04:49:30;51;46;
56175;PMS5003;63065;51.082;17.016;2022-12-18T04:51:56;47;38;
56175;PMS5003;63065;51.082;17.016;2022-12-18T04:54:22;53;47;
56175;PMS5003;63065;51.082;17.016;2022-12-18T04:56:47;59;50;
56175;PMS5003;63065;51.082;17.016;2022-12-18T04:59:12;50;45;
56175;PMS5003;63065;51.082;17.016;2022-12-18T05:01:38;46;45;
56175;PMS5003;63065;51.082;17.016;2022-12-18T05:04:03;46;42;
56175;PMS5003;63065;51.082;17.016;2022-12-18T05:06:29;52;46;
56175;PMS5003;63065;51.082;17.016;2022-12-18T05:08:54;45;42;
56175;PMS5003;63065;51.082;17.016;2022-12-18T05:11:20;54;46;
56175;PMS5003;63065;51.082;17.016;2022-12-18T05:13:45;55;47;
56175;PMS5003;63065;51.082;17.016;2022-12-18T05:16:10;54;51;
56175;PMS5003;63065;51.082;17.016;2022-12-18T05:18:36;57;48;
56175;PMS5003;63065;51.082;17.016;2022-12-18T05:21:01;55;46;
56175;PMS5003;63065;51.082;17.016;2022-12-18T05:23:26;52;44;
56175;PMS5003;63065;51.082;17.016;2022-12-18T05:25:52;57;51;
56175;PMS5003;63065;51.082;17.016;2022-12-18T05:28:17;53;50;
56175;PMS5003;63065;51.082;17.016;2022-12-18T05:30:42;43;42;
56175;PMS5003;63065;51.082;17.016;2022-12-18T05:33:08;50;45;
56175;PMS5003;63065;51.082;17.016;2022-12-18T05:35:33;58;51;
56175;PMS5003;63065;51.082;17.016;2022-12-18T05:37:58;66;50;
56175;PMS5003;63065;51.082;17.016;2022-12-18T05:40:24;60;55;
56175;PMS5003;63065;51.082;17.016;2022-12-18T05:42:49;49;46;
56175;PMS5003;63065;51.082;17.016;2022-12-18T05:45:15;51;51;
56175;PMS5003;63065;51.082;17.016;2022-12-18T05:47:40;57;50;
56175;PMS5003;63065;51.082;17.016;2022-12-18T05:50:06;57;52;
56175;PMS5003;63065;51.082;17.016;2022-12-18T05:52:31;52;46;
56175;PMS5003;63065;51.082;17.016;2022-12-18T05:54:56;57;50;
56175;PMS5003;63065;51.082;17.016;2022-12-18T05:57:22;64;58;
56175;PMS5003;63065;51.082;17.016;2022-12-18T05:59:48;65;59;
56175;PMS5003;63065;51.082;17.016;2022-12-18T06:02:13;58;52;
56175;PMS5003;63065;51.082;17.016;2022-12-18T06:04:39;57;53;
56175;PMS5003;63065;51.082;17.016;2022-12-18T06:07:04;56;52;
56175;PMS5003;63065;51.082;17.016;2022-12-18T06:09:29;69;61;
56175;PMS5003;63065;51.082;17.016;2022-12-18T06:11:54;72;62;
56175;PMS5003;63065;51.082;17.016;2022-12-18T06:14:20;69;66;
56175;PMS5003;63065;51.082;17.016;2022-12-18T06:16:46;69;59;
56175;PMS5003;63065;51.082;17.016;2022-12-18T06:19:14;64;59;
56175;PMS5003;63065;51.082;17.016;2022-12-18T06:21:36;74;64;
56175;PMS5003;63065;51.082;17.016;2022-12-18T06:24:02;80;67;
56175;PMS5003;63065;51.082;17.016;2022-12-18T06:26:28;74;63;
56175;PMS5003;63065;51.082;17.016;2022-12-18T06:28:53;76;69;
56175;PMS5003;63065;51.082;17.016;2022-12-18T06:31:18;73;67;
56175;PMS5003;63065;51.082;17.016;2022-12-18T06:33:43;82;71;
56175;PMS5003;63065;51.082;17.016;2022-12-18T06:36:11;75;67;
56175;PMS5003;63065;51.082;17.016;2022-12-18T06:38:36;81;65;
56175;PMS5003;63065;51.082;17.016;2022-12-18T06:41:00;73;70;
56175;PMS5003;63065;51.082;17.016;2022-12-18T06:43:26;78;70;
56175;PMS5003;63065;51.082;17.016;2022-12-18T06:45:57;85;70;
56175;PMS5003;63065;51.082;17.016;2022-12-18T06:48:16;84;70;
56175;PMS5003;63065;51.082;17.016;2022-12-18T06:50:42;74;65;
56175;PMS5003;63065;51.082;17.016;2022-12-18T06:53:07;64;60;
56175;PMS5003;63065;51.082;17.016;2022-12-18T06:55:32;76;70;
56175;PMS5003;63065;51.082;17.016;2022-12-18T06:57:57;79;69;
56175;PMS5003;63065;51.082;17.016;2022-12-18T07:00:23;84;76;
56175;PMS5003;63065;51.082;17.016;2022-12-18T07:02:48;93;80;
56175;PMS5003;63065;51.082;17.016;2022-12-18T07:05:14;84;73;
56175;PMS5003;63065;51.082;17.016;2022-12-18T07:07:40;101;80;
56175;PMS5003;63065;51.082;17.016;2022-12-18T07:10:05;89;76;
56175;PMS5003;63065;51.082;17.016;2022-12-18T07:12:30;75;65;
56175;PMS5003;63065;51.082;17.016;2022-12-18T07:14:55;67;64;
56175;PMS5003;63065;51.082;17.016;2022-12-18T07:17:20;75;67;
56175;PMS5003;63065;51.082;17.016;2022-12-18T07:19:46;68;60;
56175;PMS5003;63065;51.082;17.016;2022-12-18T07:22:11;74;68;
56175;PMS5003;63065;51.082;17.016;2022-12-18T07:24:37;76;70;
56175;PMS5003;63065;51.082;17.016;2022-12-18T07:27:02;61;51;
56175;PMS5003;63065;51.082;17.016;2022-12-18T07:29:27;72;64;
56175;PMS5003;63065;51.082;17.016;2022-12-18T07:31:53;69;63;
56175;PMS5003;63065;51.082;17.016;2022-12-18T07:34:18;69;63;
56175;PMS5003;63065;51.082;17.016;2022-12-18T07:36:44;70;63;
56175;PMS5003;63065;51.082;17.016;2022-12-18T07:39:10;78;72;
56175;PMS5003;63065;51.082;17.016;2022-12-18T07:41:34;81;70;
56175;PMS5003;63065;51.082;17.016;2022-12-18T07:44:00;68;65;
56175;PMS5003;63065;51.082;17.016;2022-12-18T07:46:26;83;79;
56175;PMS5003;63065;51.082;17.016;2022-12-18T07:48:52;83;65;
56175;PMS5003;63065;51.082;17.016;2022-12-18T07:51:17;78;66;
56175;PMS5003;63065;51.082;17.016;2022-12-18T07:53:43;70;62;
56175;PMS5003;63065;51.082;17.016;2022-12-18T07:56:09;76;69;
56175;PMS5003;63065;51.082;17.016;2022-12-18T07:58:34;72;65;
56175;PMS5003;63065;51.082;17.016;2022-12-18T08:01:03;69;56;
56175;PMS5003;63065;51.082;17.016;2022-12-18T08:03:25;63;58;
56175;PMS5003;63065;51.082;17.016;2022-12-18T08:05:50;60;56;
56175;PMS5003;63065;51.082;17.016;2022-12-18T08:08:15;66;53;
56175;PMS5003;63065;51.082;17.016;2022-12-18T08:10:40;73;60;
56175;PMS5003;63065;51.082;17.016;2022-12-18T08:13:06;65;60;
56175;PMS5003;63065;51.082;17.016;2022-12-18T08:15:31;70;64;
56175;PMS5003;63065;51.082;17.016;2022-12-18T08:17:57;64;54;
56175;PMS5003;63065;51.082;17.016;2022-12-18T08:20:22;68;61;
56175;PMS5003;63065;51.082;17.016;2022-12-18T08:22:48;59;52;
56175;PMS5003;63065;51.082;17.016;2022-12-18T08:25:13;60;58;
56175;PMS5003;63065;51.082;17.016;2022-12-18T08:27:38;67;57;
56175;PMS5003;63065;51.082;17.016;2022-12-18T08:30:04;66;60;
56175;PMS5003;63065;51.082;17.016;2022-12-18T08:32:29;63;58;
56175;PMS5003;63065;51.082;17.016;2022-12-18T08:34:54;65;54;
56175;PMS5003;63065;51.082;17.016;2022-12-18T08:37:19;73;64;
56175;PMS5003;63065;51.082;17.016;2022-12-18T08:39:45;67;61;
56175;PMS5003;63065;51.082;17.016;2022-12-18T08:42:11;70;59;
56175;PMS5003;63065;51.082;17.016;2022-12-18T08:44:37;69;62;
56175;PMS5003;63065;51.082;17.016;2022-12-18T08:47:02;67;61;
56175;PMS5003;63065;51.082;17.016;2022-12-18T08:49:28;65;56;
56175;PMS5003;63065;51.082;17.016;2022-12-18T08:51:54;66;59;
56175;PMS5003;63065;51.082;17.016;2022-12-18T08:54:19;65;56;
56175;PMS5003;63065;51.082;17.016;2022-12-18T08:56:44;59;53;
56175;PMS5003;63065;51.082;17.016;2022-12-18T08:59:10;70;57;
56175;PMS5003;63065;51.082;17.016;2022-12-18T09:01:35;66;62;
56175;PMS5003;63065;51.082;17.016;2022-12-18T09:04:00;63;60;
56175;PMS5003;63065;51.082;17.016;2022-12-18T09:06:25;64;56;
56175;PMS5003;63065;51.082;17.016;2022-12-18T09:08:50;65;61;
56175;PMS5003;63065;51.082;17.016;2022-12-18T09:11:19;60;54;
56175;PMS5003;63065;51.082;17.016;2022-12-18T09:13:41;63;56;
56175;PMS5003;63065;51.082;17.016;2022-12-18T09:16:07;70;62;
56175;PMS5003;63065;51.082;17.016;2022-12-18T09:18:32;60;56;
56175;PMS5003;63065;51.082;17.016;2022-12-18T09:20:57;61;54;
56175;PMS5003;63065;51.082;17.016;2022-12-18T09:23:23;55;50;
56175;PMS5003;63065;51.082;17.016;2022-12-18T09:25:49;69;64;
56175;PMS5003;63065;51.082;17.016;2022-12-18T09:28:16;69;58;
56175;PMS5003;63065;51.082;17.016;2022-12-18T09:30:41;69;59;
56175;PMS5003;63065;51.082;17.016;2022-12-18T09:33:06;62;58;
56175;PMS5003;63065;51.082;17.016;2022-12-18T09:35:32;63;54;
56175;PMS5003;63065;51.082;17.016;2022-12-18T09:37:56;69;62;
56175;PMS5003;63065;51.082;17.016;2022-12-18T09:40:22;62;51;
56175;PMS5003;63065;51.082;17.016;2022-12-18T09:42:49;64;60;
56175;PMS5003;63065;51.082;17.016;2022-12-18T09:45:13;60;55;
56175;PMS5003;63065;51.082;17.016;2022-12-18T09:47:38;62;52;
56175;PMS5003;63065;51.082;17.016;2022-12-18T09:50:05;55;52;
56175;PMS5003;63065;51.082;17.016;2022-12-18T09:52:32;75;61;
56175;PMS5003;63065;51.082;17.016;2022-12-18T09:54:56;66;59;
56175;PMS5003;63065;51.082;17.016;2022-12-18T09:57:21;70;61;
56175;PMS5003;63065;51.082;17.016;2022-12-18T09:59:47;60;55;
56175;PMS5003;63065;51.082;17.016;2022-12-18T10:02:15;93;71;
56175;PMS5003;63065;51.082;17.016;2022-12-18T10:04:37;55;51;
56175;PMS5003;63065;51.082;17.016;2022-12-18T10:07:03;61;56;
56175;PMS5003;63065;51.082;17.016;2022-12-18T10:09:30;73;62;
56175;PMS5003;63065;51.082;17.016;2022-12-18T10:11:53;63;55;
56175;PMS5003;63065;51.082;17.016;2022-12-18T10:14:19;74;67;
56175;PMS5003;63065;51.082;17.016;2022-12-18T10:16:47;76;68;
56175;PMS5003;63065;51.082;17.016;2022-12-18T10:19:13;82;72;
56175;PMS5003;63065;51.082;17.016;2022-12-18T10:21:37;66;57;
56175;PMS5003;63065;51.082;17.016;2022-12-18T10:24:02;72;59;
56175;PMS5003;63065;51.082;17.016;2022-12-18T10:26:26;65;61;
56175;PMS5003;63065;51.082;17.016;2022-12-18T10:28:52;74;63;
56175;PMS5003;63065;51.082;17.016;2022-12-18T10:31:18;62;61;
56175;PMS5003;63065;51.082;17.016;2022-12-18T10:33:42;63;57;
56175;PMS5003;63065;51.082;17.016;2022-12-18T10:36:08;66;63;
56175;PMS5003;63065;51.082;17.016;2022-12-18T10:38:33;78;69;
56175;PMS5003;63065;51.082;17.016;2022-12-18T10:40:59;63;62;
56175;PMS5003;63065;51.082;17.016;2022-12-18T10:43:25;66;58;
56175;PMS5003;63065;51.082;17.016;2022-12-18T10:48:17;61;56;
56175;PMS5003;63065;51.082;17.016;2022-12-18T10:50:41;83;73;
56175;PMS5003;63065;51.082;17.016;2022-12-18T10:53:13;93;70;
56175;PMS5003;63065;51.082;17.016;2022-12-18T10:55:33;73;65;
56175;PMS5003;63065;51.082;17.016;2022-12-18T11:00:27;79;73;
56175;PMS5003;63065;51.082;17.016;2022-12-18T11:02:48;83;71;
56175;PMS5003;63065;51.082;17.016;2022-12-18T11:10:15;79;76;
56175;PMS5003;63065;51.082;17.016;2022-12-18T11:12:31;72;68;
56175;PMS5003;63065;51.082;17.016;2022-12-18T11:14:57;72;61;
56175;PMS5003;63065;51.082;17.016;2022-12-18T11:17:25;76;69;
56175;PMS5003;63065;51.082;17.016;2022-12-18T11:19:52;72;66;
56175;PMS5003;63065;51.082;17.016;2022-12-18T11:22:19;78;68;
56175;PMS5003;63065;51.082;17.016;2022-12-18T11:24:38;74;70;
56175;PMS5003;63065;51.082;17.016;2022-12-18T11:27:05;61;49;
56175;PMS5003;63065;51.082;17.016;2022-12-18T11:29:32;68;61;
56175;PMS5003;63065;51.082;17.016;2022-12-18T11:34:22;60;55;
56175;PMS5003;63065;51.082;17.016;2022-12-18T11:36:46;67;64;
56175;PMS5003;63065;51.082;17.016;2022-12-18T11:39:12;75;70;
56175;PMS5003;63065;51.082;17.016;2022-12-18T11:41:37;63;57;
56175;PMS5003;63065;51.082;17.016;2022-12-18T11:44:01;59;51;
56175;PMS5003;63065;51.082;17.016;2022-12-18T11:46:27;77;65;
56175;PMS5003;63065;51.082;17.016;2022-12-18T11:48:53;65;56;
56175;PMS5003;63065;51.082;17.016;2022-12-18T11:51:19;60;56;
56175;PMS5003;63065;51.082;17.016;2022-12-18T11:53:42;73;58;
56175;PMS5003;63065;51.082;17.016;2022-12-18T11:56:13;63;58;
56175;PMS5003;63065;51.082;17.016;2022-12-18T11:58:38;65;57;
56175;PMS5003;63065;51.082;17.016;2022-12-18T12:01:00;65;59;
56175;PMS5003;63065;51.082;17.016;2022-12-18T12:05:55;66;59;
56175;PMS5003;63065;51.082;17.016;2022-12-18T12:08:18;59;56;
56175;PMS5003;63065;51.082;17.016;2022-12-18T12:10:45;70;63;
56175;PMS5003;63065;51.082;17.016;2022-12-18T12:13:13;71;65;
56175;PMS5003;63065;51.082;17.016;2022-12-18T12:15:36;70;66;
56175;PMS5003;63065;51.082;17.016;2022-12-18T12:18:00;72;61;
56175;PMS5003;63065;51.082;17.016;2022-12-18T12:20:25;66;59;
56175;PMS5003;63065;51.082;17.016;2022-12-18T12:22:52;69;62;
56175;PMS5003;63065;51.082;17.016;2022-12-18T12:25:18;63;62;
56175;PMS5003;63065;51.082;17.016;2022-12-18T12:27:43;72;65;
56175;PMS5003;63065;51.082;17.016;2022-12-18T12:30:06;70;63;
56175;PMS5003;63065;51.082;17.016;2022-12-18T12:32:38;82;63;
56175;PMS5003;63065;51.082;17.016;2022-12-18T12:35:01;70;64;
56175;PMS5003;63065;51.082;17.016;2022-12-18T12:37:25;87;74;
56175;PMS5003;63065;51.082;17.016;2022-12-18T12:39:48;69;64;
56175;PMS5003;63065;51.082;17.016;2022-12-18T12:42:15;72;63;
56175;PMS5003;63065;51.082;17.016;2022-12-18T12:44:40;75;70;
56175;PMS5003;63065;51.082;17.016;2022-12-18T12:47:06;83;76;
56175;PMS5003;63065;51.082;17.016;2022-12-18T12:49:31;70;62;
56175;PMS5003;63065;51.082;17.016;2022-12-18T12:51:56;73;64;
56175;PMS5003;63065;51.082;17.016;2022-12-18T12:54:22;75;65;
56175;PMS5003;63065;51.082;17.016;2022-12-18T12:56:47;76;70;
56175;PMS5003;63065;51.082;17.016;2022-12-18T12:59:13;96;76;
56175;PMS5003;63065;51.082;17.016;2022-12-18T13:01:37;81;70;
56175;PMS5003;63065;51.082;17.016;2022-12-18T13:04:04;78;69;
56175;PMS5003;63065;51.082;17.016;2022-12-18T13:08:55;94;81;
56175;PMS5003;63065;51.082;17.016;2022-12-18T13:13:48;84;81;
56175;PMS5003;63065;51.082;17.016;2022-12-18T13:16:09;75;68;
56175;PMS5003;63065;51.082;17.016;2022-12-18T13:18:35;76;66;
56175;PMS5003;63065;51.082;17.016;2022-12-18T13:21:02;72;67;
56175;PMS5003;63065;51.082;17.016;2022-12-18T13:23:27;81;73;
56175;PMS5003;63065;51.082;17.016;2022-12-18T13:25:51;90;82;
56175;PMS5003;63065;51.082;17.016;2022-12-18T13:28:16;79;72;
56175;PMS5003;63065;51.082;17.016;2022-12-18T13:30:43;69;63;
56175;PMS5003;63065;51.082;17.016;2022-12-18T13:37:59;96;74;
56175;PMS5003;63065;51.082;17.016;2022-12-18T13:42:49;85;79;
56175;PMS5003;63065;51.082;17.016;2022-12-18T13:47:40;98;91;
56175;PMS5003;63065;51.082;17.016;2022-12-18T13:50:09;78;74;
56175;PMS5003;63065;51.082;17.016;2022-12-18T13:52:33;78;67;
56175;PMS5003;63065;51.082;17.016;2022-12-18T13:54:57;83;80;
56175;PMS5003;63065;51.082;17.016;2022-12-18T13:57:25;96;84;
56175;PMS5003;63065;51.082;17.016;2022-12-18T13:59:48;84;75;
56175;PMS5003;63065;51.082;17.016;2022-12-18T14:02:14;82;76;
56175;PMS5003;63065;51.082;17.016;2022-12-18T14:04:38;79;66;
56175;PMS5003;63065;51.082;17.016;2022-12-18T14:07:05;85;71;
56175;PMS5003;63065;51.082;17.016;2022-12-18T14:09:30;75;71;
56175;PMS5003;63065;51.082;17.016;2022-12-18T14:11:55;84;78;
56175;PMS5003;63065;51.082;17.016;2022-12-18T14:14:20;71;65;
56175;PMS5003;63065;51.082;17.016;2022-12-18T14:16:46;85;82;
56175;PMS5003;63065;51.082;17.016;2022-12-18T14:19:12;83;70;
56175;PMS5003;63065;51.082;17.016;2022-12-18T14:21:37;87;74;
56175;PMS5003;63065;51.082;17.016;2022-12-18T14:24:04;100;86;
56175;PMS5003;63065;51.082;17.016;2022-12-18T14:26:29;93;76;
56175;PMS5003;63065;51.082;17.016;2022-12-18T14:28:54;89;80;
56175;PMS5003;63065;51.082;17.016;2022-12-18T14:31:19;82;73;
56175;PMS5003;63065;51.082;17.016;2022-12-18T14:33:44;85;75;
56175;PMS5003;63065;51.082;17.016;2022-12-18T14:36:14;90;75;
56175;PMS5003;63065;51.082;17.016;2022-12-18T14:38:36;74;67;
56175;PMS5003;63065;51.082;17.016;2022-12-18T14:41:01;75;67;
56175;PMS5003;63065;51.082;17.016;2022-12-18T14:43:27;86;75;
56175;PMS5003;63065;51.082;17.016;2022-12-18T14:45:52;87;78;
56175;PMS5003;63065;51.082;17.016;2022-12-18T14:48:18;82;75;
56175;PMS5003;63065;51.082;17.016;2022-12-18T14:50:43;96;82;
56175;PMS5003;63065;51.082;17.016;2022-12-18T14:55:33;101;92;
56175;PMS5003;63065;51.082;17.016;2022-12-18T14:57:59;84;75;
56175;PMS5003;63065;51.082;17.016;2022-12-18T15:00:24;92;79;
56175;PMS5003;63065;51.082;17.016;2022-12-18T15:02:51;100;86;
56175;PMS5003;63065;51.082;17.016;2022-12-18T15:05:17;79;71;
56175;PMS5003;63065;51.082;17.016;2022-12-18T15:07:42;92;83;
56175;PMS5003;63065;51.082;17.016;2022-12-18T15:10:10;87;80;
56175;PMS5003;63065;51.082;17.016;2022-12-18T15:12:33;94;77;
56175;PMS5003;63065;51.082;17.016;2022-12-18T15:14:57;96;87;
56175;PMS5003;63065;51.082;17.016;2022-12-18T15:17:22;97;88;
56175;PMS5003;63065;51.082;17.016;2022-12-18T15:19:48;101;87;
56175;PMS5003;63065;51.082;17.016;2022-12-18T15:24:39;95;77;
56175;PMS5003;63065;51.082;17.016;2022-12-18T15:27:05;95;85;
56175;PMS5003;63065;51.082;17.016;2022-12-18T15:29:30;89;79;
56175;PMS5003;63065;51.082;17.016;2022-12-18T15:32:00;101;87;
56175;PMS5003;63065;51.082;17.016;2022-12-18T15:34:21;112;98;
56175;PMS5003;63065;51.082;17.016;2022-12-18T15:36:47;87;82;
56175;PMS5003;63065;51.082;17.016;2022-12-18T15:39:13;92;83;
56175;PMS5003;63065;51.082;17.016;2022-12-18T15:41:39;78;72;
56175;PMS5003;63065;51.082;17.016;2022-12-18T15:46:29;103;90;
56175;PMS5003;63065;51.082;17.016;2022-12-18T15:48:55;98;88;
56175;PMS5003;63065;51.082;17.016;2022-12-18T15:51:21;90;85;
56175;PMS5003;63065;51.082;17.016;2022-12-18T15:53:46;107;87;
56175;PMS5003;63065;51.082;17.016;2022-12-18T15:56:11;78;72;
56175;PMS5003;63065;51.082;17.016;2022-12-18T15:58:36;100;86;
56175;PMS5003;63065;51.082;17.016;2022-12-18T16:01:02;110;92;
56175;PMS5003;63065;51.082;17.016;2022-12-18T16:03:27;110;97;
56175;PMS5003;63065;51.082;17.016;2022-12-18T16:05:53;98;87;
56175;PMS5003;63065;51.082;17.016;2022-12-18T16:08:19;109;94;
56175;PMS5003;63065;51.082;17.016;2022-12-18T16:10:44;130;112;
56175;PMS5003;63065;51.082;17.016;2022-12-18T16:13:09;104;93;
56175;PMS5003;63065;51.082;17.016;2022-12-18T16:15:34;112;98;
56175;PMS5003;63065;51.082;17.016;2022-12-18T16:17:59;112;106;
56175;PMS5003;63065;51.082;17.016;2022-12-18T16:20:24;124;111;
56175;PMS5003;63065;51.082;17.016;2022-12-18T16:22:50;110;90;
56175;PMS5003;63065;51.082;17.016;2022-12-18T16:25:17;106;97;
56175;PMS5003;63065;51.082;17.016;2022-12-18T16:27:41;102;97;